Houwa Maru — JL6394 — position and weather

sailwx.info

Track history (hours):
 
Tides and Currents Weather Stations Pressure Air Temp Water Temp Dewpoint Dewpoint Depression Visibility Wind Speed Wind Dir Waves Ship Positions

Houwa Maru

Last reported at 2015-Aug-26 02:05 UTC. Time now 2015-Aug-30 20:05 UTC.
Position N 35°05' E 139°36'.

Length 76 m.

Type: Ship. MMSI: 431500378.

Date/timePositionNaut miles runAvg speedWind from/ knotsBaromVisibWave heightAir tempDewpointWater temp
2015-Aug-26 02:05N 35°05' E 139°36'510.1
2015-Aug-26 01:33N 35°07' E 139°41'10 9.7
2015-Aug-26 00:32N 35°17' E 139°45'9 9.2
2015-Aug-25 23:33N 35°26' E 139°45'5 4.9
2015-Aug-25 22:28N 35°22' E 139°49'0 0.0
2015-Aug-25 21:19N 35°22' E 139°49'0 0.0
2015-Aug-25 20:28N 35°22' E 139°49'0 0.0
2015-Aug-25 19:28N 35°22' E 139°49'0 0.0
2015-Aug-25 18:10N 35°22' E 139°49'1 0.3
2015-Aug-25 13:16N 35°21' E 139°51'1 1.7
2015-Aug-25 12:26N 35°22' E 139°49'0 0.0
2015-Aug-25 11:32N 35°22' E 139°49'0 0.0
2015-Aug-25 10:32N 35°22' E 139°49'0 0.0
2015-Aug-25 09:32N 35°22' E 139°49'0 0.0
2015-Aug-25 08:26N 35°22' E 139°49'0 0.0
2015-Aug-25 07:32N 35°22' E 139°49'0 0.0
2015-Aug-25 06:26N 35°22' E 139°49'0 0.0
2015-Aug-25 05:29N 35°22' E 139°49'0 0.0
2015-Aug-25 04:32N 35°22' E 139°49'0 0.1
2015-Aug-25 03:32N 35°22' E 139°49'0 0.0
2015-Aug-25 02:32N 35°22' E 139°49'0 0.0
2015-Aug-25 01:32N 35°22' E 139°49'0 0.1
2015-Aug-25 00:32N 35°22' E 139°49'0 0.0
2015-Aug-24 23:32N 35°22' E 139°49'0 0.0
2015-Aug-24 22:29N 35°22' E 139°49'0 0.0
2015-Aug-24 21:26N 35°22' E 139°49'0 0.0
2015-Aug-24 20:32N 35°22' E 139°49'0 0.0
2015-Aug-24 19:32N 35°22' E 139°49'0 0.0
2015-Aug-24 18:20N 35°22' E 139°49'0 0.0
2015-Aug-24 17:26N 35°22' E 139°49'0 0.0
2015-Aug-24 16:32N 35°22' E 139°49'0 0.0
2015-Aug-24 15:29N 35°22' E 139°49'0 0.0
2015-Aug-24 14:32N 35°22' E 139°49'0 0.0
2015-Aug-24 13:29N 35°22' E 139°49'0 0.1
2015-Aug-24 12:32N 35°22' E 139°49'0 0.0
2015-Aug-24 11:32N 35°22' E 139°49'0 0.0
2015-Aug-24 10:20N 35°22' E 139°49'0 0.0
2015-Aug-24 09:17N 35°22' E 139°49'0 0.0
2015-Aug-24 08:29N 35°22' E 139°49'0 0.0
2015-Aug-24 07:32N 35°22' E 139°49'0 0.0
2015-Aug-24 06:32N 35°22' E 139°49'0 0.1
2015-Aug-24 05:33N 35°22' E 139°49'0 0.0
2015-Aug-24 04:27N 35°22' E 139°49'7 7.3
2015-Aug-24 03:33N 35°26' E 139°43'3 2.9
2015-Aug-24 02:33N 35°28' E 139°40'0 0.0
2015-Aug-24 01:33N 35°28' E 139°40'0 0.0
2015-Aug-24 00:33N 35°28' E 139°40'0 0.0
2015-Aug-23 23:33N 35°28' E 139°40'0 0.0
2015-Aug-23 22:33N 35°28' E 139°40'0 0.0
2015-Aug-23 21:24N 35°28' E 139°40'0 0.0
2015-Aug-23 20:33N 35°28' E 139°40'0 0.0
2015-Aug-23 19:33N 35°28' E 139°40'0 0.0
2015-Aug-23 18:33N 35°28' E 139°40'0 0.0
2015-Aug-23 17:33N 35°28' E 139°40'0 0.0
2015-Aug-23 16:30N 35°28' E 139°40'0 0.0
2015-Aug-23 15:33N 35°28' E 139°40'0 0.0
2015-Aug-23 14:33N 35°28' E 139°40'0 0.0
2015-Aug-23 13:33N 35°28' E 139°40'0 0.0
2015-Aug-23 12:12N 35°28' E 139°40'0 0.0
2015-Aug-23 11:33N 35°28' E 139°40'0 0.0
2015-Aug-23 10:33N 35°28' E 139°40'0 0.0
2015-Aug-23 09:30N 35°28' E 139°40'0 0.0
2015-Aug-23 08:33N 35°28' E 139°40'0 0.0
2015-Aug-23 07:33N 35°28' E 139°40'0 0.0
2015-Aug-23 04:27N 35°28' E 139°40'0 0.0
2015-Aug-23 03:12N 35°28' E 139°40'0 0.0
2015-Aug-23 02:09N 35°28' E 139°40'0 0.0
2015-Aug-23 01:33N 35°28' E 139°40'0 0.0
2015-Aug-23 00:28N 35°28' E 139°40'2 2.0
2015-Aug-22 23:27N 35°27' E 139°43'0 0.0
2015-Aug-22 22:24N 35°27' E 139°43'0 0.0
2015-Aug-22 21:30N 35°27' E 139°43'0 0.0
2015-Aug-22 20:24N 35°27' E 139°43'0 0.0
2015-Aug-22 19:30N 35°27' E 139°43'0 0.1
2015-Aug-22 18:27N 35°27' E 139°43'0 0.0
2015-Aug-22 17:30N 35°27' E 139°43'0 0.0
2015-Aug-22 16:24N 35°27' E 139°43'0 0.0
2015-Aug-22 15:33N 35°27' E 139°43'0 0.0
2015-Aug-22 14:30N 35°27' E 139°43'0 0.1
2015-Aug-22 13:30N 35°27' E 139°43'0 0.0
2015-Aug-22 12:33N 35°27' E 139°43'0 0.0
2015-Aug-22 11:30N 35°27' E 139°43'0 0.0
2015-Aug-22 10:30N 35°27' E 139°43'0 0.0
2015-Aug-22 09:30N 35°27' E 139°43'2 2.1
2015-Aug-22 08:33N 35°25' E 139°43'1311.0
2015-Aug-22 07:20N 35°12' E 139°47'910.9
2015-Aug-22 06:31N 35°04' E 139°42'  
Track history (hours):
 
Tides and Currents Weather Stations Pressure Air Temp Water Temp Dewpoint Dewpoint Depression Visibility Wind Speed Wind Dir Waves Ship Positions

Houwa Maru

Last reported at 2015-Aug-26 02:05 UTC. Time now 2015-Aug-30 20:05 UTC.
Position N 35°05' E 139°36'.

Length 76 m.

Type: Ship. MMSI: 431500378.

Date/timePositionNaut miles runAvg speedWind from/ knotsBaromVisibWave heightAir tempDewpointWater temp
2015-Aug-26 02:05N 35°05' E 139°36'510.1
2015-Aug-26 01:33N 35°07' E 139°41'10 9.7
2015-Aug-26 00:32N 35°17' E 139°45'9 9.2
2015-Aug-25 23:33N 35°26' E 139°45'5 4.9
2015-Aug-25 22:28N 35°22' E 139°49'0 0.0
2015-Aug-25 21:19N 35°22' E 139°49'0 0.0
2015-Aug-25 20:28N 35°22' E 139°49'0 0.0
2015-Aug-25 19:28N 35°22' E 139°49'0 0.0
2015-Aug-25 18:10N 35°22' E 139°49'1 0.3
2015-Aug-25 13:16N 35°21' E 139°51'1 1.7
2015-Aug-25 12:26N 35°22' E 139°49'0 0.0
2015-Aug-25 11:32N 35°22' E 139°49'0 0.0
2015-Aug-25 10:32N 35°22' E 139°49'0 0.0
2015-Aug-25 09:32N 35°22' E 139°49'0 0.0
2015-Aug-25 08:26N 35°22' E 139°49'0 0.0
2015-Aug-25 07:32N 35°22' E 139°49'0 0.0
2015-Aug-25 06:26N 35°22' E 139°49'0 0.0
2015-Aug-25 05:29N 35°22' E 139°49'0 0.0
2015-Aug-25 04:32N 35°22' E 139°49'0 0.1
2015-Aug-25 03:32N 35°22' E 139°49'0 0.0
2015-Aug-25 02:32N 35°22' E 139°49'0 0.0
2015-Aug-25 01:32N 35°22' E 139°49'0 0.1
2015-Aug-25 00:32N 35°22' E 139°49'0 0.0
2015-Aug-24 23:32N 35°22' E 139°49'0 0.0
2015-Aug-24 22:29N 35°22' E 139°49'0 0.0
2015-Aug-24 21:26N 35°22' E 139°49'0 0.0
2015-Aug-24 20:32N 35°22' E 139°49'0 0.0
2015-Aug-24 19:32N 35°22' E 139°49'0 0.0
2015-Aug-24 18:20N 35°22' E 139°49'0 0.0
2015-Aug-24 17:26N 35°22' E 139°49'0 0.0
2015-Aug-24 16:32N 35°22' E 139°49'0 0.0
2015-Aug-24 15:29N 35°22' E 139°49'0 0.0
2015-Aug-24 14:32N 35°22' E 139°49'0 0.0
2015-Aug-24 13:29N 35°22' E 139°49'0 0.1
2015-Aug-24 12:32N 35°22' E 139°49'0 0.0
2015-Aug-24 11:32N 35°22' E 139°49'0 0.0
2015-Aug-24 10:20N 35°22' E 139°49'0 0.0
2015-Aug-24 09:17N 35°22' E 139°49'0 0.0
2015-Aug-24 08:29N 35°22' E 139°49'0 0.0
2015-Aug-24 07:32N 35°22' E 139°49'0 0.0
2015-Aug-24 06:32N 35°22' E 139°49'0 0.1
2015-Aug-24 05:33N 35°22' E 139°49'0 0.0
2015-Aug-24 04:27N 35°22' E 139°49'7 7.3
2015-Aug-24 03:33N 35°26' E 139°43'3 2.9
2015-Aug-24 02:33N 35°28' E 139°40'0 0.0
2015-Aug-24 01:33N 35°28' E 139°40'0 0.0
2015-Aug-24 00:33N 35°28' E 139°40'0 0.0
2015-Aug-23 23:33N 35°28' E 139°40'0 0.0
2015-Aug-23 22:33N 35°28' E 139°40'0 0.0
2015-Aug-23 21:24N 35°28' E 139°40'0 0.0
2015-Aug-23 20:33N 35°28' E 139°40'0 0.0
2015-Aug-23 19:33N 35°28' E 139°40'0 0.0
2015-Aug-23 18:33N 35°28' E 139°40'0 0.0
2015-Aug-23 17:33N 35°28' E 139°40'0 0.0
2015-Aug-23 16:30N 35°28' E 139°40'0 0.0
2015-Aug-23 15:33N 35°28' E 139°40'0 0.0
2015-Aug-23 14:33N 35°28' E 139°40'0 0.0
2015-Aug-23 13:33N 35°28' E 139°40'0 0.0
2015-Aug-23 12:12N 35°28' E 139°40'0 0.0
2015-Aug-23 11:33N 35°28' E 139°40'0 0.0
2015-Aug-23 10:33N 35°28' E 139°40'0 0.0
2015-Aug-23 09:30N 35°28' E 139°40'0 0.0
2015-Aug-23 08:33N 35°28' E 139°40'0 0.0
2015-Aug-23 07:33N 35°28' E 139°40'0 0.0
2015-Aug-23 04:27N 35°28' E 139°40'0 0.0
2015-Aug-23 03:12N 35°28' E 139°40'0 0.0
2015-Aug-23 02:09N 35°28' E 139°40'0 0.0
2015-Aug-23 01:33N 35°28' E 139°40'0 0.0
2015-Aug-23 00:28N 35°28' E 139°40'2 2.0
2015-Aug-22 23:27N 35°27' E 139°43'0 0.0
2015-Aug-22 22:24N 35°27' E 139°43'0 0.0
2015-Aug-22 21:30N 35°27' E 139°43'0 0.0
2015-Aug-22 20:24N 35°27' E 139°43'0 0.0
2015-Aug-22 19:30N 35°27' E 139°43'0 0.1
2015-Aug-22 18:27N 35°27' E 139°43'0 0.0
2015-Aug-22 17:30N 35°27' E 139°43'0 0.0
2015-Aug-22 16:24N 35°27' E 139°43'0 0.0
2015-Aug-22 15:33N 35°27' E 139°43'0 0.0
2015-Aug-22 14:30N 35°27' E 139°43'0 0.1
2015-Aug-22 13:30N 35°27' E 139°43'0 0.0
2015-Aug-22 12:33N 35°27' E 139°43'0 0.0
2015-Aug-22 11:30N 35°27' E 139°43'0 0.0
2015-Aug-22 10:30N 35°27' E 139°43'0 0.0
2015-Aug-22 09:30N 35°27' E 139°43'2 2.1
2015-Aug-22 08:33N 35°25' E 139°43'1311.0
2015-Aug-22 07:20N 35°12' E 139°47'910.9
2015-Aug-22 06:31N 35°04' E 139°42'  

Dump ship's entire track history